createdAt,value
2022-09-30T00:26:02.526Z,14.09
2022-09-30T00:28:36.657Z,14.55
2022-09-30T00:31:06.546Z,14.59
2022-09-30T00:33:34.362Z,14.47
2022-09-30T00:36:01.189Z,14.58
2022-09-30T00:38:27.981Z,14.40
2022-09-30T00:40:56.186Z,14.56
2022-09-30T00:43:51.628Z,14.57
2022-09-30T00:46:44.598Z,14.67
2022-09-30T00:49:22.480Z,14.63
2022-09-30T00:51:54.368Z,14.70
2022-09-30T00:54:28.380Z,14.64
2022-09-30T00:57:13.743Z,14.61
2022-09-30T00:59:45.168Z,14.56
2022-09-30T01:02:13.551Z,14.60
2022-09-30T01:04:42.925Z,14.80
2022-09-30T01:07:10.379Z,14.76
2022-09-30T01:09:40.539Z,14.82
2022-09-30T01:12:27.140Z,14.77
2022-09-30T01:15:23.375Z,14.86
2022-09-30T01:18:18.848Z,14.96
2022-09-30T01:21:05.783Z,15.09
2022-09-30T01:23:32.264Z,14.82
2022-09-30T01:26:43.286Z,14.91
2022-09-30T01:29:19.795Z,15.09
2022-09-30T01:32:29.425Z,15.18
2022-09-30T01:35:30.603Z,15.11
2022-09-30T01:38:23.150Z,14.58
2022-09-30T01:41:04.289Z,15.01
2022-09-30T01:44:06.439Z,14.07
2022-09-30T01:47:29.974Z,14.19
2022-09-30T01:53:50.928Z,14.88
2022-09-30T01:56:52.887Z,14.95
2022-09-30T01:59:29.507Z,15.06
2022-09-30T02:02:02.317Z,15.03
2022-09-30T02:04:33.190Z,14.81
2022-09-30T02:07:29.004Z,14.73
2022-09-30T02:10:02.916Z,14.55
2022-09-30T02:12:34.975Z,14.58
2022-09-30T02:15:11.802Z,14.53
2022-09-30T02:17:48.895Z,14.37
2022-09-30T02:20:26.469Z,14.80
2022-09-30T02:26:42.584Z,15.13
2022-09-30T02:29:22.539Z,15.24
2022-09-30T02:31:58.242Z,14.61
2022-09-30T02:34:35.217Z,14.62
2022-09-30T02:37:15.724Z,14.59
2022-09-30T02:39:51.214Z,14.30
2022-09-30T02:42:37.529Z,13.47
2022-09-30T02:45:12.328Z,13.31
2022-09-30T02:47:59.072Z,13.67
2022-09-30T02:50:44.011Z,13.75
2022-09-30T02:53:48.061Z,13.95
2022-09-30T03:00:20.655Z,13.87
2022-09-30T03:02:47.377Z,14.09
2022-09-30T03:05:14.301Z,14.30
2022-09-30T03:07:41.711Z,13.82
2022-09-30T03:10:16.564Z,14.16
2022-09-30T03:13:23.973Z,14.32
2022-09-30T03:16:02.677Z,14.32
2022-09-30T03:18:43.635Z,14.55
2022-09-30T03:21:34.456Z,14.19
2022-09-30T03:24:21.573Z,14.33
2022-09-30T03:27:06.659Z,14.63
2022-09-30T03:29:57.265Z,14.11
2022-09-30T03:32:50.176Z,14.54
2022-09-30T03:35:21.748Z,14.36
2022-09-30T03:38:16.372Z,14.59
2022-09-30T03:40:57.625Z,14.06
2022-09-30T03:43:38.597Z,14.17
2022-09-30T03:46:34.482Z,14.11
2022-09-30T03:49:05.148Z,14.15
2022-09-30T03:51:32.665Z,14.11
2022-09-30T03:53:59.519Z,13.78
2022-09-30T03:56:29.678Z,14.17
2022-09-30T03:58:56.756Z,13.97
2022-09-30T04:01:47.601Z,14.21
2022-09-30T04:04:14.339Z,14.11
2022-09-30T04:06:40.860Z,13.91
2022-09-30T04:09:07.509Z,13.90
2022-09-30T04:11:34.172Z,14.29
2022-09-30T04:14:01.615Z,14.47
2022-09-30T04:20:24.216Z,14.13
2022-09-30T04:22:50.824Z,13.87
2022-09-30T04:25:17.378Z,14.00
2022-09-30T04:27:43.929Z,14.12
2022-09-30T04:30:11.052Z,14.05
2022-09-30T04:32:37.589Z,14.33
2022-09-30T04:35:30.125Z,14.34
2022-09-30T04:37:56.796Z,14.08
2022-09-30T04:40:23.377Z,14.07
2022-09-30T04:42:50.035Z,14.20
2022-09-30T04:45:16.691Z,14.71
2022-09-30T04:47:45.333Z,15.07
2022-09-30T04:50:43.049Z,14.32
2022-09-30T04:54:22.375Z,14.95
2022-09-30T04:56:49.005Z,15.01
2022-09-30T04:59:15.575Z,14.97
2022-09-30T05:01:44.674Z,15.16
2022-09-30T05:04:12.365Z,15.10
2022-09-30T05:06:42.235Z,15.01
2022-09-30T05:09:08.949Z,14.29
2022-09-30T05:11:38.240Z,14.41
2022-09-30T05:14:09.195Z,14.33
2022-09-30T05:16:36.243Z,14.52
2022-09-30T05:19:03.256Z,14.25
2022-09-30T05:21:30.230Z,14.51
2022-09-30T05:23:57.038Z,14.50
2022-09-30T05:26:23.637Z,14.47
2022-09-30T05:28:50.235Z,14.91
2022-09-30T07:35:16.930Z,16.17
2022-09-30T07:37:43.780Z,16.10
2022-09-30T07:40:10.894Z,16.19
2022-09-30T07:42:45.591Z,16.07
2022-09-30T07:45:38.199Z,16.10
2022-09-30T07:48:24.831Z,16.10
2022-09-30T07:50:54.199Z,16.07
2022-09-30T07:53:21.103Z,16.22
2022-09-30T07:55:47.783Z,16.15
2022-09-30T07:58:14.729Z,15.95
2022-09-30T08:07:16.035Z,16.31
2022-09-30T08:09:42.891Z,16.22
2022-09-30T08:12:09.895Z,16.45
2022-09-30T08:14:36.645Z,16.36
2022-09-30T08:17:03.271Z,16.17
2022-09-30T08:19:30.724Z,15.96
2022-09-30T08:21:58.197Z,16.14
2022-09-30T08:24:26.295Z,16.20
2022-09-30T08:26:53.482Z,16.25
2022-09-30T08:29:35.721Z,16.23
2022-09-30T08:32:02.753Z,16.35
2022-09-30T08:34:47.676Z,16.38
2022-09-30T08:37:14.298Z,16.53
2022-09-30T08:39:42.434Z,16.50
2022-09-30T08:42:42.652Z,16.34
2022-09-30T08:45:13.614Z,16.26
2022-09-30T08:47:49.133Z,16.07
2022-09-30T08:54:40.531Z,16.24
2022-09-30T08:57:07.223Z,16.55
2022-09-30T08:59:45.775Z,16.69
2022-09-30T09:02:55.065Z,16.66
2022-09-30T09:05:49.929Z,16.80
2022-09-30T09:08:49.346Z,16.81
2022-09-30T09:11:41.262Z,17.11
2022-09-30T09:14:18.245Z,17.22
2022-09-30T09:16:57.574Z,17.40
2022-09-30T09:19:29.761Z,17.39
2022-09-30T09:22:01.796Z,17.42
2022-09-30T09:24:40.266Z,17.64
2022-09-30T09:27:19.865Z,17.58
2022-09-30T09:30:06.629Z,17.57
2022-09-30T09:32:34.669Z,17.69
2022-09-30T09:35:15.623Z,17.83
2022-09-30T09:38:03.873Z,17.79
2022-09-30T09:40:42.651Z,17.75
2022-09-30T09:43:27.656Z,17.57
2022-09-30T09:46:15.087Z,17.48
2022-09-30T09:48:44.897Z,17.29
2022-09-30T09:51:36.546Z,17.36
2022-09-30T09:54:08.967Z,17.44
2022-09-30T09:56:37.923Z,17.51
2022-09-30T09:59:09.486Z,17.37
2022-09-30T10:01:54.634Z,17.41
2022-09-30T10:04:29.850Z,17.46
2022-09-30T10:07:00.638Z,17.64
2022-09-30T10:09:36.243Z,17.61
2022-09-30T10:12:05.803Z,17.74
2022-09-30T10:15:00.232Z,17.75
2022-09-30T10:17:33.169Z,17.81
2022-09-30T10:20:06.625Z,17.86
2022-09-30T10:22:35.134Z,17.92
2022-09-30T10:25:23.679Z,18.03
2022-09-30T10:28:16.260Z,18.02
2022-09-30T10:30:51.163Z,18.18
2022-09-30T10:33:31.365Z,18.04
2022-09-30T10:36:06.227Z,18.30
2022-09-30T10:38:34.772Z,18.47
2022-09-30T10:41:03.680Z,18.41
2022-09-30T10:43:52.410Z,18.41
2022-09-30T10:46:39.691Z,18.47
2022-09-30T10:49:24.751Z,18.08
2022-09-30T10:51:51.682Z,18.20
2022-09-30T10:54:50.632Z,18.07
2022-09-30T10:57:21.048Z,18.42
2022-09-30T10:59:48.974Z,18.54
2022-09-30T11:02:34.650Z,18.53
2022-09-30T11:05:01.222Z,18.56
2022-09-30T11:07:44.367Z,18.48
2022-09-30T11:10:48.398Z,18.40
2022-09-30T11:13:32.005Z,18.54
2022-09-30T11:16:37.875Z,18.57
2022-09-30T11:19:07.351Z,18.69
2022-09-30T11:21:53.096Z,18.66
2022-09-30T11:24:25.503Z,18.69
2022-09-30T11:27:24.964Z,18.56
2022-09-30T11:30:09.182Z,18.89
2022-09-30T11:33:07.521Z,18.76
2022-09-30T11:35:34.065Z,18.83
2022-09-30T11:38:06.250Z,18.64
2022-09-30T11:40:35.568Z,18.68
2022-09-30T11:43:24.192Z,18.71
2022-09-30T11:46:21.307Z,18.76
2022-09-30T11:49:03.460Z,18.62
2022-09-30T11:51:40.270Z,18.60
2022-09-30T11:54:20.618Z,18.75
2022-09-30T11:57:06.448Z,18.82
2022-09-30T11:59:43.714Z,18.93
2022-09-30T12:02:29.232Z,18.77
2022-09-30T12:05:01.067Z,18.90
2022-09-30T12:07:40.127Z,18.98
2022-09-30T12:10:34.483Z,18.83
2022-09-30T12:13:13.894Z,18.76
2022-09-30T12:15:46.085Z,18.58
2022-09-30T12:18:27.619Z,18.88
2022-09-30T12:20:58.506Z,18.72
2022-09-30T12:23:51.163Z,18.84
2022-09-30T12:26:18.397Z,18.72
2022-09-30T12:29:22.019Z,18.94
2022-09-30T12:32:09.536Z,18.91
2022-09-30T12:34:46.304Z,18.91
2022-09-30T12:41:36.741Z,18.92
2022-09-30T12:44:47.952Z,19.06
2022-09-30T12:47:52.879Z,18.95
2022-09-30T12:50:24.550Z,19.12
2022-09-30T12:52:51.842Z,19.18
2022-09-30T12:55:25.375Z,19.15
2022-09-30T12:57:56.051Z,19.12
2022-09-30T13:00:31.491Z,19.22
2022-09-30T13:03:04.854Z,18.95
2022-09-30T13:05:31.357Z,18.89
2022-09-30T13:08:04.449Z,18.72
2022-09-30T13:10:38.233Z,18.97
2022-09-30T13:13:10.907Z,18.88
2022-09-30T13:15:37.405Z,18.85
2022-09-30T13:18:31.262Z,18.91
2022-09-30T13:21:21.436Z,18.99
2022-09-30T13:23:50.285Z,18.87
2022-09-30T13:26:22.623Z,18.91
2022-09-30T13:28:50.799Z,19.02
2022-09-30T13:31:22.793Z,19.01
2022-09-30T13:34:04.298Z,19.01
2022-09-30T13:36:52.514Z,18.94
2022-09-30T13:39:43.745Z,18.56
2022-09-30T13:42:20.607Z,18.73
2022-09-30T13:45:29.355Z,18.86
2022-09-30T13:48:15.292Z,18.96
2022-09-30T13:50:46.891Z,18.85
2022-09-30T13:53:20.941Z,18.87
2022-09-30T13:55:50.929Z,18.94
2022-09-30T13:58:19.318Z,18.94
2022-09-30T14:00:48.710Z,18.72
2022-09-30T14:03:26.970Z,18.45
2022-09-30T14:06:01.005Z,18.62
2022-09-30T14:08:34.783Z,18.79
2022-09-30T14:11:27.110Z,18.70
2022-09-30T14:14:16.164Z,18.95
2022-09-30T14:16:58.336Z,19.05
2022-09-30T14:19:43.503Z,18.94
2022-09-30T14:22:11.452Z,18.88
2022-09-30T14:24:40.377Z,18.91
2022-09-30T14:27:20.818Z,18.77
2022-09-30T14:30:11.520Z,18.97
2022-09-30T14:32:46.520Z,18.83
2022-09-30T14:35:23.625Z,18.92
2022-09-30T14:37:54.835Z,18.99
2022-09-30T14:40:29.682Z,19.00
2022-09-30T14:43:02.896Z,19.07
2022-09-30T14:45:33.128Z,19.17
2022-09-30T14:48:15.515Z,19.14
2022-09-30T14:50:50.568Z,19.08
2022-09-30T14:53:28.858Z,18.96
2022-09-30T14:56:00.102Z,18.94
2022-09-30T14:58:31.239Z,19.01
2022-09-30T18:19:49.406Z,16.24
2022-09-30T18:48:40.936Z,16.38
2022-09-30T18:51:08.872Z,16.36
2022-09-30T18:53:35.610Z,16.06
2022-09-30T18:56:04.385Z,16.03
2022-09-30T19:04:07.803Z,16.05
2022-09-30T19:06:34.892Z,16.13
2022-09-30T19:09:02.069Z,16.26
2022-09-30T19:11:30.753Z,16.20
2022-09-30T19:31:34.787Z,16.55
2022-09-30T19:34:02.631Z,16.55
2022-09-30T19:36:31.161Z,16.38
2022-09-30T19:47:06.124Z,16.30
2022-09-30T19:49:32.829Z,16.38
2022-09-30T19:51:59.816Z,16.50
2022-09-30T19:55:30.416Z,16.51
2022-09-30T19:58:37.411Z,16.59
2022-09-30T20:01:05.218Z,16.61
2022-09-30T20:03:32.828Z,16.40
2022-09-30T20:06:05.729Z,16.47
2022-09-30T20:08:33.323Z,16.50
2022-09-30T20:11:14.818Z,16.53
2022-09-30T20:13:42.233Z,16.36
2022-09-30T20:16:14.464Z,16.29
2022-09-30T20:18:43.218Z,16.30
2022-09-30T20:21:16.440Z,16.37
2022-09-30T20:23:45.870Z,16.31
2022-09-30T20:26:15.348Z,16.18
2022-09-30T20:28:42.284Z,16.16
2022-09-30T20:31:12.206Z,16.18
2022-09-30T20:36:14.046Z,16.23
2022-09-30T20:38:40.621Z,16.35
2022-09-30T20:41:07.765Z,16.12
2022-09-30T20:43:43.757Z,15.98
2022-09-30T20:46:10.380Z,16.07
2022-09-30T20:48:39.127Z,16.08
2022-09-30T20:51:14.515Z,16.12
2022-09-30T20:53:44.501Z,16.20
2022-09-30T20:56:15.244Z,16.27
2022-09-30T21:01:57.878Z,16.36
2022-09-30T21:04:40.890Z,16.29
2022-09-30T21:07:07.537Z,16.34
2022-09-30T21:09:34.896Z,16.35
2022-09-30T21:12:01.981Z,16.45
2022-09-30T21:14:28.597Z,16.48
2022-09-30T21:16:55.160Z,16.54
2022-09-30T21:19:21.724Z,16.52
2022-09-30T21:21:48.331Z,16.25
2022-09-30T21:24:16.347Z,16.53
2022-09-30T21:26:43.308Z,16.63
2022-09-30T21:29:09.891Z,16.36
2022-09-30T21:31:37.838Z,16.55
2022-09-30T21:34:23.064Z,16.63
2022-09-30T21:36:49.733Z,16.64
2022-09-30T21:39:16.383Z,16.69
2022-09-30T21:41:43.020Z,16.71
2022-09-30T21:44:09.871Z,16.46
2022-09-30T21:46:36.571Z,15.82
2022-09-30T22:02:39.944Z,16.26
2022-09-30T22:05:07.374Z,16.18
2022-09-30T22:35:06.859Z,16.02
2022-09-30T22:37:51.687Z,16.01
2022-09-30T22:40:18.499Z,16.00
2022-09-30T22:42:46.477Z,16.13
2022-09-30T23:21:09.686Z,16.17
2022-09-30T23:23:38.168Z,16.07
2022-09-30T23:26:06.099Z,16.22
2022-09-30T23:28:33.094Z,16.32
2022-09-30T23:31:11.470Z,16.37
2022-09-30T23:33:39.989Z,16.23
2022-09-30T23:36:07.344Z,16.21
2022-09-30T23:38:34.009Z,16.27
2022-09-30T23:41:00.576Z,16.07
2022-09-30T23:43:30.165Z,15.86
2022-09-30T23:46:07.277Z,15.64
2022-09-30T23:48:58.888Z,15.81
2022-09-30T23:51:25.454Z,15.69
2022-09-30T23:53:52.116Z,15.86
2022-09-30T23:56:19.629Z,15.74
2022-09-30T23:58:47.458Z,15.96
